SAZN

Details ICAO SAZN (NQN)
Name PRESIDENTE PERON
Region Argentina
Timezone America/Argentina/Salta (UTC-3.0)
Plans Departing 42
Arriving 33
Stats Elevation 895 ft / 273 m (AMSL)
Location -38.949000° -68.155713°
Runways 1
Magnetic Variation 2.639° E
Sunrise 2017-12-16 09:03:07 UTC / 2017-12-16 06:03:07 Local
Sunset 2017-12-16 23:56:20 UTC / 2017-12-16 20:56:20 Local
Advertisement - Login to hide

Runways

ID Width Length Bearing (true) Bearing (mag) Surface Threshold Offset Overrun Length
08 147 ft / 45 m 8,411 ft / 2,564 m 90.23° 87.59° Asphalt 0 ft / 0 m 680 ft / 207 m
26 147 ft / 45 m 8,411 ft / 2,564 m 270.21° 267.57° Asphalt 0 ft / 0 m 675 ft / 206 m

Approach Navaids

Runway Type Ident Frequency Range Bearing (true) Bearing (mag) Slope Elevation
08 Localiser NE 110.30 MHz 18 nm / 33 km 92.65° 90.01° - 895 ft / 273 m (AMSL)
08 Glidescope NE 110.30 MHz 10 nm / 19 km 90.22° 87.58° 3.00° 896 ft / 273 m (AMSL)

Map

Weather


0- 5 10 15 20 25 30 35+ Temperature / ° C

Clouds and Precipitation
Forecast for 2017-12-16 18:00 UTC. Updated 2 hours ago

Ground ~20,000 ft ~40,000 ft Winds

METAR

SAZN 161800Z 29023G44KT 4000 BLDU NSC 30/16 Q0998

TAF

TAF SAZN 161700Z 1618/1718 27020G40KT 3500 DU SCT030 SCT100 TX23/1718Z TN10/1709Z BECMG 1622/1700 25030G45KT BECMG 1706/1708 18015KT CAVOK BECMG 1712/1714 25005KT

Frequencies

Tower 119.30 MHz NEUQUEN TWR/APP
Warning: Do not use this data for real-world aviation or navigation. No guarantee of current accuracy is given.